Time;durP1;ratioP1;P1;durP2;ratioP2;P2;SDS_P1;SDS_P2;PMS_P1;PMS_P2;Temp;Humidity;BMP_temperature;BMP_pressure;BME280_temperature;BME280_humidity;BME280_pressure;Samples;Min_cycle;Max_cycle;Signal;HPM_P1;HPM_P2
2021/11/23 00:00:47;;;;;;;40.78;24.55;;;;;;;1.61;88.10;100903.81;1791235;80;25444;-68
2021/11/23 00:03:17;;;;;;;40.52;23.62;;;;;;;1.55;88.34;100899.41;1791237;79;25885;-68
2021/11/23 00:05:47;;;;;;;37.73;22.15;;;;;;;1.50;88.52;100896.13;1791274;80;25422;-67
2021/11/23 00:08:17;;;;;;;40.98;22.35;;;;;;;1.46;88.60;100897.13;1763449;80;27240;-68
2021/11/23 00:10:45;;;;;;;41.75;23.30;;;;;;;1.44;88.60;100898.39;1791282;80;26765;-69
2021/11/23 00:13:13;;;;;;;38.20;22.20;;;;;;;1.39;88.82;100890.28;1791257;79;25619;-69
2021/11/23 00:15:41;;;;;;;39.42;25.20;;;;;;;1.37;88.96;100894.50;1791301;80;25971;-69
2021/11/23 00:18:12;;;;;;;39.63;23.22;;;;;;;1.35;89.06;100896.59;1791296;80;25571;-69
2021/11/23 00:20:42;;;;;;;38.78;22.75;;;;;;;1.35;89.22;100898.46;1791228;80;28088;-69
2021/11/23 00:23:11;;;;;;;38.58;21.30;;;;;;;1.33;89.37;100897.86;1773662;79;25422;-69
2021/11/23 00:25:38;;;;;;;37.95;21.60;;;;;;;1.34;89.40;100896.30;1802688;79;25377;-69
2021/11/23 00:28:05;;;;;;;39.67;21.23;;;;;;;1.35;89.50;100896.59;1802529;79;26673;-69
2021/11/23 00:30:32;;;;;;;43.28;23.42;;;;;;;1.34;89.52;100892.30;1802623;78;25583;-69
2021/11/23 00:33:00;;;;;;;41.88;24.20;;;;;;;1.34;89.43;100897.63;1802561;79;27339;-68
2021/11/23 00:35:28;;;;;;;40.80;23.30;;;;;;;1.34;89.44;100896.30;1802482;79;25281;-69
2021/11/23 00:37:55;;;;;;;42.45;22.75;;;;;;;1.35;89.49;100901.13;1802629;78;25438;-69
2021/11/23 00:40:22;;;;;;;40.38;22.82;;;;;;;1.35;89.65;100900.59;1802534;79;26474;-69
2021/11/23 00:42:50;;;;;;;38.13;22.07;;;;;;;1.36;89.66;100906.73;1802559;78;25551;-69
2021/11/23 00:45:17;;;;;;;38.35;22.45;;;;;;;1.35;89.73;100903.27;1802585;78;27300;-69
2021/11/23 00:47:45;;;;;;;38.75;21.95;;;;;;;1.35;89.74;100913.92;1802447;78;25430;-69
2021/11/23 00:50:13;;;;;;;39.30;23.10;;;;;;;1.34;89.76;100908.30;1802567;79;25639;-69
2021/11/23 00:52:40;;;;;;;39.00;21.73;;;;;;;1.35;89.85;100905.13;1772926;79;26580;-68
2021/11/23 00:55:08;;;;;;;39.73;22.05;;;;;;;1.37;89.95;100905.70;1802710;78;25604;-69
2021/11/23 00:57:35;;;;;;;38.83;21.73;;;;;;;1.37;89.97;100902.50;1802898;79;27273;-69
2021/11/23 01:00:05;;;;;;;40.75;23.40;;;;;;;1.37;90.01;100897.17;1802585;79;25592;-69
2021/11/23 01:02:32;;;;;;;41.63;23.38;;;;;;;1.39;89.97;100896.94;1781173;79;25458;-69
2021/11/23 01:04:59;;;;;;;35.35;22.42;;;;;;;1.41;90.06;100894.84;1802535;79;25905;-69
2021/11/23 01:07:27;;;;;;;46.58;24.20;;;;;;;1.41;90.05;100888.19;1802568;79;25354;-69
2021/11/23 01:09:54;;;;;;;44.90;23.65;;;;;;;1.41;90.11;100886.84;1802609;79;27977;-69
2021/11/23 01:12:20;;;;;;;41.18;23.00;;;;;;;1.38;90.03;100886.81;1802430;79;25376;-69
2021/11/23 01:14:47;;;;;;;39.05;22.95;;;;;;;1.37;90.05;100885.70;1802537;79;25451;-69
2021/11/23 01:17:17;;;;;;;43.58;24.07;;;;;;;1.35;90.08;100891.80;1802534;79;25625;-69
2021/11/23 01:19:45;;;;;;;43.87;26.12;;;;;;;1.32;90.10;100881.06;1802606;79;25352;-69
2021/11/23 01:22:12;;;;;;;46.15;24.77;;;;;;;1.28;90.21;100878.05;1773743;79;27551;-69
2021/11/23 01:24:39;;;;;;;43.68;25.32;;;;;;;1.24;90.19;100872.91;1802456;79;25524;-70
2021/11/23 01:27:06;;;;;;;39.27;24.60;;;;;;;1.22;90.33;100868.31;1802505;79;25586;-69
2021/11/23 01:29:36;;;;;;;42.90;25.37;;;;;;;1.22;90.45;100872.84;1780337;79;25982;-69
2021/11/23 01:32:03;;;;;;;43.05;25.95;;;;;;;1.21;90.66;100869.38;1773245;79;25394;-69
2021/11/23 01:34:31;;;;;;;43.92;26.68;;;;;;;1.18;90.77;100867.17;1802530;79;27299;-69
2021/11/23 01:36:58;;;;;;;47.43;27.30;;;;;;;1.16;90.72;100869.26;1802409;79;25430;-70
2021/11/23 01:39:25;;;;;;;50.10;27.70;;;;;;;1.14;90.79;100871.32;1802547;79;25378;-69
2021/11/23 01:41:52;;;;;;;49.75;28.35;;;;;;;1.13;90.97;100871.05;1802491;79;25961;-69
2021/11/23 01:44:18;;;;;;;47.78;29.10;;;;;;;1.12;91.15;100868.08;1802536;79;25433;-70
2021/11/23 01:46:45;;;;;;;52.15;28.85;;;;;;;1.11;91.55;100869.95;1802514;78;27344;-70
2021/11/23 01:49:12;;;;;;;51.02;28.25;;;;;;;1.12;91.47;100874.75;1802430;79;25784;-70
2021/11/23 01:51:39;;;;;;;50.95;29.20;;;;;;;1.12;91.59;100870.75;1802513;79;25421;-69
2021/11/23 01:54:06;;;;;;;55.08;31.48;;;;;;;1.12;91.86;100876.08;1802500;78;25929;-69
2021/11/23 01:56:32;;;;;;;56.63;29.92;;;;;;;1.14;91.83;100871.85;1802567;79;25564;-69
2021/11/23 01:58:59;;;;;;;55.03;29.42;;;;;;;1.17;91.92;100872.73;1802510;78;27368;-69
2021/11/23 02:01:25;;;;;;;55.92;30.95;;;;;;;1.20;92.11;100876.27;1802524;79;25404;-69
2021/11/23 02:03:52;;;;;;;55.43;30.32;;;;;;;1.23;92.22;100886.47;1802583;79;25589;-69
2021/11/23 02:06:19;;;;;;;52.58;29.77;;;;;;;1.27;92.31;100891.61;1802442;79;25910;-69
2021/11/23 02:08:46;;;;;;;57.95;31.25;;;;;;;1.31;92.44;100891.42;1802536;79;25570;-69
2021/11/23 02:11:12;;;;;;;56.73;30.80;;;;;;;1.35;92.51;100899.80;1802429;79;29462;-69
2021/11/23 02:13:39;;;;;;;65.57;31.95;;;;;;;1.36;92.67;100898.20;1802413;79;25450;-69
2021/11/23 02:16:06;;;;;;;68.47;33.28;;;;;;;1.37;92.38;100893.17;1802509;79;25372;-69
2021/11/23 02:18:33;;;;;;;69.82;33.50;;;;;;;1.40;92.36;100893.24;1802427;79;25964;-69
2021/11/23 02:21:00;;;;;;;77.22;38.20;;;;;;;1.38;92.35;100881.48;1802548;79;25382;-69
2021/11/23 02:23:26;;;;;;;71.35;37.48;;;;;;;1.38;92.18;100896.14;1801247;79;27304;-69
2021/11/23 02:25:53;;;;;;;76.92;40.17;;;;;;;1.37;92.20;100902.50;1802457;79;25793;-69
2021/11/23 02:28:20;;;;;;;77.87;38.33;;;;;;;1.36;92.15;100900.87;1802478;79;25552;-69
2021/11/23 02:30:54;;;;;;;76.67;38.55;;;;;;;1.36;92.08;100902.20;1802453;79;25898;-69
2021/11/23 02:33:24;;;;;;;79.07;38.08;;;;;;;1.39;92.21;100912.41;1802468;78;25611;-69
2021/11/23 02:35:54;;;;;;;76.10;39.45;;;;;;;1.40;92.16;100906.05;1802499;79;27878;-69
2021/11/23 02:38:24;;;;;;;75.90;39.83;;;;;;;1.39;92.18;100907.07;1802399;79;25535;-69
2021/11/23 02:40:51;;;;;;;76.30;38.20;;;;;;;1.38;91.97;100913.97;1802444;79;25571;-69
2021/11/23 02:43:19;;;;;;;71.80;35.63;;;;;;;1.37;92.03;100908.36;1802371;79;26037;-69
2021/11/23 02:45:46;;;;;;;68.92;35.38;;;;;;;1.34;91.81;100907.49;1802529;78;25540;-69
2021/11/23 02:48:14;;;;;;;70.83;34.55;;;;;;;1.29;91.53;100908.17;1802463;79;27274;-69
2021/11/23 02:50:46;;;;;;;70.00;34.73;;;;;;;1.26;91.63;100910.80;1802348;79;25547;-68
2021/11/23 02:53:11;;;;;;;73.75;36.65;;;;;;;1.29;91.74;100913.50;1802164;79;25466;-68
2021/11/23 02:55:39;;;;;;;72.85;36.75;;;;;;;1.28;91.70;100911.91;1802402;79;25909;-68
2021/11/23 02:58:07;;;;;;;79.50;36.60;;;;;;;1.27;91.66;100907.07;1773070;79;25398;-68
2021/11/23 03:00:39;;;;;;;66.75;34.48;;;;;;;1.22;91.67;100910.95;1779838;79;27902;-68
2021/11/23 03:03:09;;;;;;;69.53;34.40;;;;;;;1.19;91.54;100904.78;1802376;79;25586;-69
2021/11/23 03:05:40;;;;;;;72.80;33.50;;;;;;;1.16;91.65;100895.91;1780121;79;25428;-69
2021/11/23 03:08:09;;;;;;;70.62;33.33;;;;;;;1.14;91.62;100895.84;1802450;79;25912;-69
2021/11/23 03:10:37;;;;;;;66.37;33.10;;;;;;;1.12;91.66;100892.06;1802459;79;25366;-69
2021/11/23 03:13:04;;;;;;;68.70;33.38;;;;;;;1.07;91.65;100886.12;1802391;79;28290;-69
2021/11/23 03:15:32;;;;;;;61.37;32.63;;;;;;;1.07;91.73;100888.78;1802436;79;25588;-69
2021/11/23 03:17:59;;;;;;;59.25;32.93;;;;;;;1.05;91.71;100884.18;1802451;79;25425;-69
2021/11/23 03:20:27;;;;;;;62.05;31.73;;;;;;;1.03;91.82;100894.27;1802435;79;25913;-68
2021/11/23 03:22:56;;;;;;;64.40;30.32;;;;;;;1.01;91.79;100886.23;1799286;79;25403;-68
2021/11/23 03:25:23;;;;;;;61.33;29.35;;;;;;;1.00;91.87;100876.60;1796664;79;27365;-68
2021/11/23 03:27:50;;;;;;;58.87;29.90;;;;;;;0.98;91.91;100883.48;1796410;79;25530;-68
2021/11/23 03:30:23;;;;;;;54.27;27.02;;;;;;;1.00;92.08;100873.94;1796539;79;25480;-68
2021/11/23 03:32:53;;;;;;;55.63;27.58;;;;;;;1.00;92.09;100884.06;1796457;79;25979;-68
2021/11/23 03:35:24;;;;;;;53.38;27.27;;;;;;;0.97;91.88;100885.05;1796574;79;25372;-69
2021/11/23 03:37:52;;;;;;;54.80;28.20;;;;;;;0.95;91.92;100881.28;1796281;79;27362;-69
2021/11/23 03:40:28;;;;;;;52.60;28.40;;;;;;;0.93;92.07;100876.70;1760102;79;25548;-69
2021/11/23 03:42:55;;;;;;;55.15;28.17;;;;;;;0.92;92.05;100866.58;1796501;79;25627;-69
2021/11/23 03:45:23;;;;;;;54.73;25.60;;;;;;;0.93;92.15;100868.72;1796489;79;25878;-69
2021/11/23 03:47:51;;;;;;;47.83;25.25;;;;;;;0.93;92.18;100866.05;1796553;79;25369;-69
2021/11/23 03:50:18;;;;;;;53.35;26.07;;;;;;;0.91;92.23;100860.95;1796481;79;27285;-69
2021/11/23 03:52:47;;;;;;;52.43;25.92;;;;;;;0.93;92.32;100861.53;1796406;79;25620;-69
2021/11/23 03:55:17;;;;;;;48.68;23.80;;;;;;;0.96;92.40;100860.27;1796631;79;25415;-69
2021/11/23 03:57:47;;;;;;;47.83;22.77;;;;;;;1.00;92.44;100852.62;1764420;81;25907;-69
2021/11/23 04:00:17;;;;;;;45.03;22.55;;;;;;;0.99;92.26;100853.16;1764570;81;25489;-69
2021/11/23 04:02:47;;;;;;;41.92;22.13;;;;;;;1.00;92.27;100857.95;1737828;81;28309;-69
2021/11/23 04:05:14;;;;;;;38.83;21.20;;;;;;;1.00;92.25;100848.09;1764459;81;25465;-69
2021/11/23 04:07:41;;;;;;;44.80;22.48;;;;;;;1.01;92.54;100846.27;1764544;81;25570;-69
2021/11/23 04:10:11;;;;;;;40.33;20.80;;;;;;;1.00;92.21;100842.77;1764489;81;28080;-69
2021/11/23 04:12:38;;;;;;;39.67;20.72;;;;;;;1.01;92.26;100843.60;1764523;81;25657;-69
2021/11/23 04:15:07;;;;;;;36.68;20.55;;;;;;;1.03;92.18;100838.31;1764542;81;27531;-69
2021/11/23 04:17:35;;;;;;;38.33;20.62;;;;;;;1.06;92.13;100842.39;1764629;81;25529;-69
2021/11/23 04:20:05;;;;;;;38.55;21.45;;;;;;;1.06;92.08;100837.05;1764572;81;25659;-69
2021/11/23 04:22:33;;;;;;;35.68;19.00;;;;;;;1.06;92.01;100835.19;1784847;79;26056;-69
2021/11/23 04:24:59;;;;;;;32.33;19.37;;;;;;;1.08;91.99;100833.10;1802408;79;25527;-69
2021/11/23 04:27:28;;;;;;;31.95;18.30;;;;;;;1.08;91.86;100834.44;1802425;79;25758;-69
2021/11/23 04:29:55;;;;;;;32.78;18.25;;;;;;;1.09;91.82;100836.56;1802311;79;27132;-69
2021/11/23 04:32:21;;;;;;;29.70;17.42;;;;;;;1.11;91.84;100838.50;1802377;79;25598;-69
2021/11/23 04:34:48;;;;;;;29.07;16.52;;;;;;;1.11;91.73;100839.83;1802476;79;25956;-69
2021/11/23 04:37:15;;;;;;;30.10;17.95;;;;;;;1.11;91.64;100835.30;1802399;79;25448;-69
2021/11/23 04:39:43;;;;;;;28.30;16.17;;;;;;;1.11;91.57;100833.17;1802385;79;27678;-69
2021/11/23 04:42:10;;;;;;;30.17;16.52;;;;;;;1.11;91.41;100837.97;1802327;79;25533;-69
2021/11/23 04:44:36;;;;;;;32.25;18.00;;;;;;;1.13;91.35;100835.61;1802480;79;25364;-69
2021/11/23 04:47:04;;;;;;;28.45;16.87;;;;;;;1.14;91.33;100837.21;1802451;79;25921;-69
2021/11/23 04:49:30;;;;;;;29.45;16.93;;;;;;;1.15;91.27;100834.84;1798668;79;25555;-69
2021/11/23 04:51:57;;;;;;;28.70;16.65;;;;;;;1.18;91.34;100834.39;1802362;79;27296;-69
2021/11/23 04:54:24;;;;;;;32.83;17.00;;;;;;;1.19;91.28;100823.50;1802593;79;25394;-69
2021/11/23 04:56:50;;;;;;;30.20;17.73;;;;;;;1.22;91.20;100823.00;1802823;79;25586;-69
2021/11/23 04:59:17;;;;;;;34.25;18.40;;;;;;;1.22;90.91;100823.00;1802446;79;25930;-69
2021/11/23 05:01:44;;;;;;;32.55;17.05;;;;;;;1.23;90.89;100822.50;1802415;79;25588;-69
2021/11/23 05:04:10;;;;;;;28.38;16.37;;;;;;;1.24;90.83;100816.11;1802403;79;27372;-69
2021/11/23 05:06:39;;;;;;;29.18;17.05;;;;;;;1.26;90.78;100806.02;1779866;79;25567;-69
2021/11/23 05:09:05;;;;;;;26.35;15.83;;;;;;;1.27;90.70;100808.98;1802668;78;25632;-69
2021/11/23 05:11:35;;;;;;;25.77;15.08;;;;;;;1.29;90.61;100807.73;1802453;79;25980;-68
2021/11/23 05:14:01;;;;;;;29.13;16.63;;;;;;;1.29;90.44;100799.73;1802658;79;25425;-68
2021/11/23 05:16:28;;;;;;;27.90;15.30;;;;;;;1.28;90.34;100798.09;1802563;79;27480;-68
2021/11/23 05:18:55;;;;;;;29.20;14.47;;;;;;;1.29;90.19;100793.56;1802437;79;25621;-68
2021/11/23 05:21:21;;;;;;;24.82;13.65;;;;;;;1.28;90.02;100795.43;1802557;79;25544;-68
2021/11/23 05:23:48;;;;;;;21.93;12.78;;;;;;;1.29;89.85;100789.56;1773547;79;25808;-68
2021/11/23 05:26:14;;;;;;;21.62;13.38;;;;;;;1.29;89.48;100786.41;1802547;79;25557;-68
2021/11/23 05:28:41;;;;;;;19.02;12.10;;;;;;;1.30;89.65;100784.01;1802540;79;27393;-68
2021/11/23 05:31:07;;;;;;;19.05;12.43;;;;;;;1.30;89.26;100774.68;1802386;79;27159;-68
2021/11/23 05:33:34;;;;;;;17.67;11.25;;;;;;;1.33;89.49;100781.91;1802464;79;25442;-68
2021/11/23 05:36:01;;;;;;;17.35;10.63;;;;;;;1.32;89.14;100770.98;1802467;78;25872;-69
2021/11/23 05:38:29;;;;;;;16.87;10.08;;;;;;;1.33;89.20;100776.58;1779999;79;25402;-69
2021/11/23 05:40:56;;;;;;;16.65;9.33;;;;;;;1.34;89.19;100768.35;1802618;78;27325;-69
2021/11/23 05:43:23;;;;;;;15.90;9.60;;;;;;;1.36;88.94;100767.59;1802565;79;25559;-69
2021/11/23 05:45:49;;;;;;;14.65;7.72;;;;;;;1.36;88.63;100772.92;1802541;79;25579;-69
2021/11/23 05:48:16;;;;;;;13.80;7.72;;;;;;;1.37;88.24;100773.22;1802510;79;26643;-69
2021/11/23 05:50:43;;;;;;;11.60;7.37;;;;;;;1.38;87.91;100770.85;1780103;79;25551;-69
2021/11/23 05:53:10;;;;;;;13.08;7.75;;;;;;;1.40;87.84;100778.08;1802473;79;27378;-69
2021/11/23 05:55:37;;;;;;;10.48;7.00;;;;;;;1.41;87.90;100775.69;1802336;79;25620;-69
2021/11/23 05:58:05;;;;;;;11.05;7.20;;;;;;;1.42;87.58;100775.98;1802544;79;25432;-69
2021/11/23 06:00:32;;;;;;;9.30;6.30;;;;;;;1.44;87.29;100765.89;1802505;79;25956;-66
2021/11/23 06:02:59;;;;;;;10.75;6.47;;;;;;;1.44;87.34;100771.22;1802537;78;25269;-66
2021/11/23 06:05:27;;;;;;;11.38;5.80;;;;;;;1.46;86.95;100768.32;1802502;79;27378;-66
2021/11/23 06:07:54;;;;;;;6.90;5.15;;;;;;;1.48;86.38;100773.72;1802424;79;25612;-66
2021/11/23 06:10:22;;;;;;;9.80;5.80;;;;;;;1.50;86.37;100780.16;1802447;79;25543;-66
2021/11/23 06:12:50;;;;;;;9.18;6.08;;;;;;;1.52;86.61;100771.39;1802538;79;26586;-66
2021/11/23 06:15:18;;;;;;;10.78;6.08;;;;;;;1.54;86.25;100777.82;1802549;79;25552;-66
2021/11/23 06:17:47;;;;;;;9.73;6.05;;;;;;;1.55;85.82;100784.25;1802505;79;27362;-66
2021/11/23 06:20:14;;;;;;;9.68;5.25;;;;;;;1.57;85.64;100781.35;1802372;78;25562;-66
2021/11/23 06:22:41;;;;;;;6.22;4.33;;;;;;;1.59;85.68;100776.59;1801207;79;25365;-66
2021/11/23 06:25:09;;;;;;;8.23;5.03;;;;;;;1.59;85.78;100774.72;1796573;79;25948;-66
2021/11/23 06:27:37;;;;;;;13.05;5.62;;;;;;;1.62;85.89;100770.78;1796595;79;25537;-66
2021/11/23 06:30:06;;;;;;;9.30;4.85;;;;;;;1.61;85.72;100769.95;1796520;79;27329;-66
2021/11/23 06:32:34;;;;;;;11.83;5.67;;;;;;;1.61;85.45;100766.48;1796778;79;25528;-66
2021/11/23 06:35:02;;;;;;;7.40;5.53;;;;;;;1.58;85.58;100765.09;1796575;79;25588;-66
2021/11/23 06:37:30;;;;;;;8.25;5.92;;;;;;;1.57;85.57;100766.69;1796587;79;25975;-66
2021/11/23 06:39:56;;;;;;;8.80;5.42;;;;;;;1.54;85.46;100763.16;1796598;79;25594;-66
2021/11/23 06:42:23;;;;;;;8.35;5.22;;;;;;;1.48;85.53;100757.72;1796577;79;27320;-66
2021/11/23 06:44:51;;;;;;;10.53;5.12;;;;;;;1.45;85.71;100754.19;1796578;79;25458;-66
2021/11/23 06:47:18;;;;;;;9.85;5.55;;;;;;;1.39;86.17;100748.99;1796478;79;25367;-68
2021/11/23 06:49:45;;;;;;;11.18;5.17;;;;;;;1.35;86.52;100732.67;1796831;79;25894;-68
2021/11/23 06:52:12;;;;;;;7.85;5.45;;;;;;;1.31;86.59;100735.50;1777491;79;25664;-68
2021/11/23 06:54:39;;;;;;;10.20;5.15;;;;;;;1.27;86.86;100731.17;1765561;79;27305;-68
2021/11/23 06:57:07;;;;;;;8.55;5.33;;;;;;;1.23;87.01;100726.56;1750428;81;25724;-68
2021/11/23 06:59:34;;;;;;;8.23;5.72;;;;;;;1.21;87.29;100729.97;1769747;79;25599;-68
2021/11/23 07:02:00;;;;;;;10.85;5.42;;;;;;;1.18;87.41;100719.80;1764365;79;26498;-68
2021/11/23 07:04:27;;;;;;;9.63;5.45;;;;;;;1.19;87.74;100721.41;1768834;79;25778;-68
2021/11/23 07:06:53;;;;;;;12.63;5.33;;;;;;;1.19;87.93;100717.41;1763980;79;29443;-69
2021/11/23 07:09:20;;;;;;;10.13;5.20;;;;;;;1.19;88.06;100715.58;1770606;79;25668;-69
2021/11/23 07:11:46;;;;;;;10.23;5.78;;;;;;;1.22;88.10;100716.94;1762451;79;26011;-69
2021/11/23 07:14:13;;;;;;;11.78;5.30;;;;;;;1.23;88.06;100710.05;1737319;81;26752;-68
2021/11/23 07:16:40;;;;;;;8.73;5.42;;;;;;;1.24;88.06;100705.02;1764207;79;25717;-68
2021/11/23 07:19:06;;;;;;;9.88;5.15;;;;;;;1.25;88.13;100697.28;1769371;79;27340;-68
2021/11/23 07:21:34;;;;;;;10.23;5.28;;;;;;;1.27;88.21;100689.06;1737913;82;25776;-69
2021/11/23 07:24:05;;;;;;;9.50;5.72;;;;;;;1.27;88.28;100689.06;1732187;81;25425;-69
2021/11/23 07:26:33;;;;;;;10.25;5.42;;;;;;;1.29;88.27;100681.63;1752245;81;26477;-68
2021/11/23 07:29:01;;;;;;;8.45;5.35;;;;;;;1.28;88.33;100678.16;1739196;81;25682;-69
2021/11/23 07:31:28;;;;;;;12.23;5.67;;;;;;;1.30;88.54;100677.92;1752279;81;27516;-69
2021/11/23 07:33:55;;;;;;;7.35;5.40;;;;;;;1.30;88.60;100678.73;1752098;80;25372;-68
2021/11/23 07:36:24;;;;;;;10.03;5.67;;;;;;;1.31;88.66;100686.19;1753414;80;25320;-68
2021/11/23 07:38:55;;;;;;;11.90;5.20;;;;;;;1.33;88.76;100684.13;1752314;81;33181;-68
2021/11/23 07:41:22;;;;;;;9.38;4.90;;;;;;;1.36;88.80;100686.82;1752197;80;25441;-68
2021/11/23 07:43:50;;;;;;;7.45;5.00;;;;;;;1.37;88.67;100669.26;1752119;81;27468;-68
2021/11/23 07:46:18;;;;;;;12.35;4.80;;;;;;;1.40;88.76;100675.45;1752094;80;25441;-68
2021/11/23 07:48:46;;;;;;;8.18;4.33;;;;;;;1.45;88.53;100678.22;1752152;80;25567;-68
2021/11/23 07:51:14;;;;;;;6.97;4.50;;;;;;;1.48;88.67;100683.58;1752097;81;25983;-68
2021/11/23 07:53:41;;;;;;;9.70;4.58;;;;;;;1.49;88.67;100674.01;1752189;80;25457;-69
2021/11/23 07:56:08;;;;;;;9.90;4.90;;;;;;;1.51;88.51;100668.44;1739267;81;27220;-69
2021/11/23 07:58:35;;;;;;;8.08;4.00;;;;;;;1.47;88.95;100666.78;1752063;81;25716;-69
2021/11/23 08:01:01;;;;;;;8.50;5.10;;;;;;;1.45;88.93;100693.41;1752240;81;25538;-69
2021/11/23 08:03:28;;;;;;;6.78;4.62;;;;;;;1.45;88.97;100664.08;1752163;80;26830;-69
2021/11/23 08:05:55;;;;;;;7.47;4.67;;;;;;;1.45;89.40;100670.22;1752167;81;25623;-69
2021/11/23 08:08:22;;;;;;;11.63;4.65;;;;;;;1.46;89.50;100681.67;1752096;81;27457;-69
2021/11/23 08:10:49;;;;;;;8.95;4.92;;;;;;;1.46;89.85;100681.17;1752061;81;27221;-69
2021/11/23 08:13:16;;;;;;;7.72;5.03;;;;;;;1.52;90.25;100691.41;1752094;80;25608;-69
2021/11/23 08:15:44;;;;;;;8.58;5.20;;;;;;;1.53;90.25;100690.33;1752113;81;25933;-68
2021/11/23 08:18:11;;;;;;;7.78;4.70;;;;;;;1.58;90.29;100684.30;1739197;81;25672;-68
2021/11/23 08:20:38;;;;;;;8.78;5.10;;;;;;;1.60;90.88;100684.35;1752050;81;27304;-68
2021/11/23 08:23:06;;;;;;;8.18;5.05;;;;;;;1.64;90.80;100676.68;1752069;81;25618;-68
2021/11/23 08:25:33;;;;;;;8.60;5.05;;;;;;;1.67;90.81;100682.34;1754772;81;25394;-68
2021/11/23 08:28:00;;;;;;;11.20;6.03;;;;;;;1.73;90.98;100675.23;1741645;81;26501;-68
2021/11/23 08:30:26;;;;;;;9.80;6.12;;;;;;;1.74;91.66;100671.52;1754557;81;25382;-68
2021/11/23 08:32:53;;;;;;;12.00;6.30;;;;;;;1.77;91.13;100680.38;1754497;81;27381;-68
2021/11/23 08:35:19;;;;;;;13.90;6.70;;;;;;;1.79;91.61;100680.95;1754472;81;25831;-68
2021/11/23 08:37:47;;;;;;;13.48;6.50;;;;;;;1.80;91.27;100665.73;1754592;81;25422;-68
2021/11/23 08:40:14;;;;;;;12.20;6.60;;;;;;;1.82;91.27;100686.31;1741608;81;25910;-69
2021/11/23 08:42:41;;;;;;;12.35;6.78;;;;;;;1.84;91.68;100660.23;1754666;81;25433;-69
2021/11/23 08:45:10;;;;;;;9.83;6.12;;;;;;;1.89;91.54;100675.48;1754662;81;28179;-69
2021/11/23 08:47:37;;;;;;;;;;;;;;;1.93;91.62;100677.44;1755410;81;25550;-69
2021/11/23 08:50:07;;;;;;;16.73;9.00;;;;;;;1.92;91.81;100671.80;1730889;81;25531;-68
2021/11/23 08:52:35;;;;;;;9.55;6.58;;;;;;;1.90;91.96;100675.78;1754393;81;26491;-68
2021/11/23 08:55:03;;;;;;;9.28;7.40;;;;;;;1.90;92.08;100677.91;1754477;81;25566;-68
2021/11/23 08:57:29;;;;;;;10.78;7.65;;;;;;;1.90;91.67;100680.58;1754452;81;28026;-68
2021/11/23 09:00:11;;;;;;;14.43;8.15;;;;;;;1.92;92.18;100675.80;1754333;81;25603;-68
2021/11/23 09:02:24;;;;;;;17.87;9.60;;;;;;;1.92;92.09;100679.81;1752014;81;25554;-68
2021/11/23 09:04:51;;;;;;;11.95;8.03;;;;;;;1.93;92.25;100679.30;1754398;81;25909;-68
2021/11/23 09:07:20;;;;;;;12.40;8.80;;;;;;;1.93;92.80;100677.44;1754563;81;25413;-68
2021/11/23 09:09:48;;;;;;;14.58;9.55;;;;;;;1.95;92.52;100701.21;1754373;80;28117;-68
2021/11/23 09:12:16;;;;;;;12.60;9.55;;;;;;;1.97;92.38;100699.91;1754399;81;25633;-68
2021/11/23 09:14:43;;;;;;;14.03;9.10;;;;;;;1.98;92.43;100701.53;1754525;81;25607;-68
2021/11/23 09:17:10;;;;;;;14.13;9.88;;;;;;;1.99;92.39;100690.33;1754385;81;26520;-70
2021/11/23 09:19:38;;;;;;;16.40;8.88;;;;;;;1.99;92.32;100705.00;1754454;80;25585;-69
2021/11/23 09:22:05;;;;;;;11.20;8.75;;;;;;;1.99;92.47;100701.83;1754413;81;27296;-69
2021/11/23 09:24:32;;;;;;;16.90;10.18;;;;;;;2.03;92.63;100696.81;1744091;81;25463;-69
2021/11/23 09:26:59;;;;;;;16.05;9.43;;;;;;;2.04;92.57;100703.25;1730299;82;25636;-68
2021/11/23 09:29:26;;;;;;;13.03;9.98;;;;;;;2.03;92.53;100706.95;1712108;82;25811;-68
2021/11/23 09:31:53;;;;;;;14.73;9.88;;;;;;;2.07;92.61;100705.94;1730366;82;25420;-68
2021/11/23 09:34:22;;;;;;;16.80;11.83;;;;;;;2.11;92.98;100701.76;1730294;82;27379;-68
2021/11/23 09:36:49;;;;;;;16.55;9.78;;;;;;;2.12;92.72;100698.55;1730256;82;25796;-68
2021/11/23 09:39:16;;;;;;;16.97;10.28;;;;;;;2.12;92.52;100699.89;1730371;82;25626;-69
2021/11/23 09:41:42;;;;;;;19.65;10.90;;;;;;;2.11;92.54;100686.25;1730338;82;25909;-69
2021/11/23 09:44:09;;;;;;;12.90;9.63;;;;;;;2.11;92.51;100699.59;1703215;82;25578;-68
2021/11/23 09:46:38;;;;;;;19.95;10.80;;;;;;;2.11;92.83;100695.09;1730399;82;27336;-71
2021/11/23 09:49:08;;;;;;;14.90;10.18;;;;;;;2.12;92.75;100700.69;1730413;82;25666;-69
2021/11/23 09:51:37;;;;;;;21.93;10.48;;;;;;;2.14;93.17;100699.91;1730412;82;25444;-69
2021/11/23 09:54:07;;;;;;;17.80;11.20;;;;;;;2.17;93.05;100705.30;1730304;82;25984;-69
2021/11/23 09:56:37;;;;;;;16.25;10.80;;;;;;;2.17;92.99;100698.09;1726597;82;25431;-69
2021/11/23 09:59:06;;;;;;;13.78;10.20;;;;;;;2.19;92.88;100692.52;1730348;82;27363;-69
2021/11/23 10:01:56;;;;;;;15.93;10.80;;;;;;;2.18;92.84;100700.23;1702759;82;25415;-70
2021/11/23 10:04:27;;;;;;;18.30;11.43;;;;;;;2.19;93.15;100694.66;1730369;82;25661;-69
2021/11/23 10:07:04;;;;;;;19.57;11.33;;;;;;;2.22;92.94;100686.70;1730272;82;25907;-69
2021/11/23 10:09:38;;;;;;;14.33;10.93;;;;;;;2.25;93.07;100696.90;1730327;82;25443;-69
2021/11/23 10:12:28;;;;;;;20.60;11.60;;;;;;;2.23;93.17;100694.97;1730357;81;27377;-70
2021/11/23 10:15:16;;;;;;;18.90;12.33;;;;;;;2.22;92.98;100697.38;1729293;82;25657;-68
2021/11/23 10:17:48;;;;;;;19.17;12.30;;;;;;;2.20;92.99;100700.29;1730368;82;25780;-68
2021/11/23 10:20:37;;;;;;;18.02;13.43;;;;;;;2.23;93.15;100701.14;1703222;82;26850;-68
2021/11/23 10:23:20;;;;;;;19.75;13.28;;;;;;;2.23;93.30;100702.48;1730462;82;25399;-69
2021/11/23 10:25:58;;;;;;;23.98;15.58;;;;;;;2.27;93.31;100712.14;1726850;82;27416;-69
2021/11/23 10:28:28;;;;;;;21.80;14.20;;;;;;;2.26;93.39;100701.17;1725669;83;25823;-69
2021/11/23 10:30:57;;;;;;;19.90;13.32;;;;;;;2.28;93.32;100696.92;1726122;83;25457;-69
2021/11/23 10:33:25;;;;;;;22.45;13.65;;;;;;;2.30;93.37;100703.66;1726291;83;25961;-69
2021/11/23 10:35:56;;;;;;;17.85;13.72;;;;;;;2.31;93.36;100701.78;1726181;83;25465;-70
2021/11/23 10:38:24;;;;;;;19.62;13.75;;;;;;;2.31;93.33;100699.11;1726161;83;27340;-70
2021/11/23 10:40:51;;;;;;;22.37;14.68;;;;;;;2.32;93.38;100703.41;1726078;83;25393;-70
2021/11/23 10:43:21;;;;;;;22.80;15.20;;;;;;;2.34;93.56;100707.97;1726075;83;25631;-69
2021/11/23 10:45:54;;;;;;;;;;;;;;;2.36;93.56;100709.87;1728665;83;25963;-69
2021/11/23 10:48:25;;;;;;;21.25;13.70;;;;;;;2.39;93.64;100714.19;1726124;83;25554;-67
2021/11/23 10:51:07;;;;;;;25.10;14.43;;;;;;;2.38;93.66;100710.42;1725955;83;27219;-68
2021/11/23 10:53:35;;;;;;;18.12;14.38;;;;;;;2.39;93.77;100712.86;1726056;83;25443;-68
2021/11/23 10:56:13;;;;;;;19.17;13.88;;;;;;;2.37;93.75;100706.95;1726150;83;25564;-68
2021/11/23 10:58:41;;;;;;;17.57;13.60;;;;;;;2.38;93.78;100703.25;1726144;83;26693;-69
2021/11/23 11:01:10;;;;;;;22.22;14.68;;;;;;;2.41;93.80;100712.61;1725467;82;25472;-69
2021/11/23 11:03:39;;;;;;;23.83;14.23;;;;;;;2.41;94.08;100715.28;1726247;83;27390;-68
2021/11/23 11:06:09;;;;;;;21.62;14.68;;;;;;;2.42;93.97;100714.24;1726168;83;25593;-69
2021/11/23 11:08:46;;;;;;;23.45;14.70;;;;;;;2.44;94.11;100720.14;1726177;83;25663;-68
2021/11/23 11:11:19;;;;;;;24.25;15.15;;;;;;;2.48;94.13;100729.27;1726030;83;25928;-68
2021/11/23 11:13:53;;;;;;;20.60;13.83;;;;;;;2.50;94.21;100721.02;1726009;83;25387;-68
2021/11/23 11:16:21;;;;;;;22.85;14.40;;;;;;;2.52;94.45;100715.73;1692884;83;28029;-68
2021/11/23 11:19:13;;;;;;;24.60;14.85;;;;;;;2.53;94.25;100723.20;1725890;83;25798;-68
2021/11/23 11:21:54;;;;;;;23.70;15.35;;;;;;;2.53;94.54;100721.34;1726073;83;25629;-68
2021/11/23 11:24:44;;;;;;;25.75;15.43;;;;;;;2.56;94.38;100721.39;1728362;81;26635;-68
2021/11/23 11:27:14;;;;;;;22.98;14.68;;;;;;;2.56;94.32;100732.87;1751187;81;25418;-68